< < Back
Terminal Aerodrome Forecast


Current Version              Previous Versions:   1  2  3  4  5  6  7  8  9  

Terminal Aerodrome Forecast

792
FTUS44 KMOB 231100
TAFPNS
TAF
KPNS 231139Z 2312/2412 02008KT P6SM FEW200
      TEMPO 2314/2318 BKN005
     FM231900 04009KT P6SM SCT010
     FM232100 06009KT P6SM SKC=



Latest METAR

904
SAUS70 KWBC 231400 RRE
MTRPNS
METAR KPNS 231353Z 02006KT 10SM CLR 19/15 A3008 RMK AO2 SLP188
T01940150


USA.gov is the U.S. government's official web portal to all federal, state and local government web resources and services.